»·PEaware :: AAL2248 KGPI-KBOI

AAL2248 :: KGPI-KBOI

FLIGHT INFORMATION

Flight Status: Arrived
Operator:
American Airlines
More flights by this operator :: More flights under this callsign
Pilot: Alex K. (14822)
Aircraft: BOEING 727-200
(B722)
More flights by this aircraft type
Origin: KGPI Glacier Park Intl
United States
Destination: KBOI Boise Air Terminal/Gowen
United States
More flights between these airports :: More routes between these airports
Route: +SKOTT2 SKOTT LKT BOI
File this flight plan on PilotEdge
Remarks: PBN / A1B2 NAV / RNVD1E2A1 DAT / V DOF / 180909 REG / N299SB RMK / NRP SIMBRIEF
Altitude:
(Current/Filed)
32,000ft
Speed:
(Current/Filed)
486kts
Departed: 09-Sep-18 10:08 AM
Arrived: 09-Sep-18 11:23 AM
Distance/Time
Traveled:
296nm/1:15
Distance/Time
To Go:
Arrived

Flight Plot

Page will automatically refresh every two minutes.

Flight plan parsing failed; only flown route is shown


Map Options




Map Legend


Flown Route
Filed Route
Departure Airport
Arrival Airport
Navaid (VOR, NDB)
Fix

Horizontal Profiles

Position Reports

Time Latitude Longitude Heading Altitude Ground
Speed
09-Sep-18 09:50 48.308350 -114.252977 304 2978ft 0kts
09-Sep-18 09:51 48.308350 -114.252977 304 2978ft 0kts
09-Sep-18 09:52 48.308350 -114.252977 304 2978ft 0kts
09-Sep-18 09:53 48.308350 -114.252977 304 2978ft 0kts
09-Sep-18 09:54 48.308350 -114.252977 304 2978ft 0kts
09-Sep-18 09:55 48.308350 -114.252977 304 2978ft 0kts
09-Sep-18 09:56 48.308350 -114.252977 304 2978ft 0kts
09-Sep-18 09:57 48.308350 -114.252977 304 2978ft 0kts
09-Sep-18 09:58 48.308350 -114.252977 304 2978ft 0kts
09-Sep-18 09:58 48.308350 -114.252977 304 2978ft 0kts
09-Sep-18 09:59 48.308350 -114.252977 304 2978ft 0kts
09-Sep-18 10:01 48.308350 -114.252977 304 2978ft 0kts
09-Sep-18 10:02 48.308350 -114.252977 304 2978ft 0kts
09-Sep-18 10:03 48.308350 -114.252977 304 2978ft 0kts
09-Sep-18 10:04 48.308350 -114.252977 304 2978ft 0kts
09-Sep-18 10:05 48.308350 -114.252977 304 2978ft 0kts
09-Sep-18 10:06 48.308350 -114.252977 304 2978ft 0kts
09-Sep-18 10:07 48.310943 -114.252887 26 2978ft 20kts
09-Sep-18 10:08 48.315883 -114.247775 34 2978ft 22kts
09-Sep-18 10:09 48.318262 -114.245578 352 2978ft 0kts
09-Sep-18 10:10 48.317753 -114.247851 214 2978ft 46kts
09-Sep-18 10:11 48.284728 -114.271123 157 4254ft 169kts
09-Sep-18 10:12 48.244886 -114.211640 146 5709ft 237kts
09-Sep-18 10:13 48.177773 -114.181088 163 7963ft 282kts
09-Sep-18 10:14 48.099306 -114.165947 180 10150ft 318kts
09-Sep-18 10:15 48.010188 -114.159730 181 13018ft 329kts
09-Sep-18 10:16 47.917832 -114.153091 182 15504ft 341kts
09-Sep-18 10:17 47.823689 -114.155426 185 17652ft 351kts
09-Sep-18 10:18 47.728038 -114.154304 184 19566ft 362kts
09-Sep-18 10:19 47.628271 -114.151931 185 21297ft 372kts
09-Sep-18 10:24 48.308350 -114.252977 304 2978ft 0kts
09-Sep-18 10:25 48.308350 -114.252977 304 2978ft 0kts
09-Sep-18 10:26 48.308350 -114.252977 304 2978ft 0kts
09-Sep-18 10:27 48.308350 -114.252977 304 2978ft 0kts
09-Sep-18 10:28 48.308358 -114.252994 304 2978ft 1kts
09-Sep-18 10:29 48.312541 -114.251274 35 2978ft 25kts
09-Sep-18 10:30 48.318332 -114.245647 340 2978ft 17kts
09-Sep-18 10:31 48.304737 -114.261301 215 3067ft 161kts
09-Sep-18 10:32 48.263128 -114.243928 144 4874ft 226kts
09-Sep-18 10:33 48.215061 -114.183916 153 7766ft 245kts
09-Sep-18 10:34 48.143526 -114.168010 181 10012ft 288kts
09-Sep-18 10:35 48.056956 -114.163041 181 12331ft 332kts
09-Sep-18 10:36 47.964240 -114.156256 181 15155ft 345kts
09-Sep-18 10:37 47.871659 -114.149169 182 17518ft 357kts
09-Sep-18 10:38 47.771650 -114.141463 182 19694ft 370kts
09-Sep-18 10:39 47.673920 -114.133895 183 21517ft 381kts
09-Sep-18 10:40 47.569376 -114.111366 168 23122ft 402kts
09-Sep-18 10:41 47.461444 -114.089649 183 24624ft 400kts
09-Sep-18 10:42 47.350022 -114.085336 186 26002ft 408kts
09-Sep-18 10:43 47.235923 -114.084519 186 27249ft 416kts
09-Sep-18 10:44 47.119758 -114.084371 187 28377ft 424kts
09-Sep-18 10:45 47.001687 -114.084382 186 29442ft 430kts
09-Sep-18 10:46 46.884260 -114.084489 185 30464ft 433kts
09-Sep-18 10:47 46.763155 -114.084286 185 31289ft 440kts
09-Sep-18 10:48 46.641282 -114.084292 185 32030ft 446kts
09-Sep-18 10:49 46.516165 -114.084359 185 32114ft 466kts
09-Sep-18 10:50 46.385510 -114.084333 185 32109ft 480kts
09-Sep-18 10:51 46.253167 -114.084222 185 32108ft 478kts
09-Sep-18 10:52 46.120684 -114.084219 185 32109ft 479kts
09-Sep-18 10:53 45.989768 -114.084247 185 32125ft 479kts
09-Sep-18 10:54 45.859279 -114.084157 185 32146ft 480kts
09-Sep-18 10:55 45.728251 -114.084228 185 32146ft 482kts
09-Sep-18 10:56 45.595786 -114.084212 185 32146ft 484kts
09-Sep-18 10:57 45.464116 -114.084191 185 32146ft 487kts
09-Sep-18 10:58 45.329040 -114.084221 185 32146ft 491kts
09-Sep-18 10:59 45.193037 -114.084146 185 32146ft 493kts
09-Sep-18 11:00 45.056019 -114.084170 184 32145ft 494kts
09-Sep-18 11:01 44.941071 -114.157405 238 32149ft 461kts
09-Sep-18 11:02 44.873965 -114.298982 231 32161ft 460kts
09-Sep-18 11:03 44.790088 -114.429126 229 32171ft 463kts
09-Sep-18 11:04 44.702897 -114.558124 229 32171ft 464kts
09-Sep-18 11:05 44.618297 -114.681873 228 32176ft 466kts
09-Sep-18 11:06 44.547628 -114.784537 227 29694ft 476kts
09-Sep-18 11:07 44.457329 -114.915333 227 27673ft 479kts
09-Sep-18 11:08 44.365139 -115.048420 227 25474ft 484kts
09-Sep-18 11:09 44.271757 -115.182336 226 22985ft 491kts
09-Sep-18 11:10 44.176770 -115.317936 226 20258ft 499kts
09-Sep-18 11:11 44.089237 -115.442781 226 20068ft 426kts
09-Sep-18 11:12 44.000556 -115.542533 201 17473ft 415kts
09-Sep-18 11:13 43.897677 -115.599162 203 15035ft 403kts
09-Sep-18 11:14 43.797307 -115.655363 202 12676ft 392kts
09-Sep-18 11:15 43.699155 -115.710621 202 10430ft 379kts
09-Sep-18 11:16 43.614215 -115.757995 202 10143ft 284kts
09-Sep-18 11:17 43.543956 -115.796876 209 8992ft 248kts
09-Sep-18 11:18 43.498142 -115.856604 225 7912ft 223kts
09-Sep-18 11:19 43.468562 -115.924322 267 6008ft 204kts
09-Sep-18 11:20 43.488475 -115.998591 293 5999ft 205kts
09-Sep-18 11:21 43.509207 -116.059919 294 5109ft 147kts
09-Sep-18 11:22 43.526089 -116.108198 295 4350ft 138kts
09-Sep-18 11:23 43.542460 -116.155734 294 3645ft 137kts
09-Sep-18 11:24 43.558594 -116.202926 294 2881ft 137kts
09-Sep-18 11:25 43.567201 -116.228110 295 2850ft 24kts
09-Sep-18 11:26 43.567435 -116.225229 114 2850ft 15kts
09-Sep-18 11:27 43.566687 -116.219305 21 2850ft 1kts

Navigation Log

Ident Type
Flight plan parsing failed, navigation log unavailable